UD03 weather

Public forecast

Using degrees Celsius for public forecast. Weather courtesy of forecast.io.

Closest aviation weather report (METAR) to Aviosuperficie AVRO

Report is more than 6 hours old.

Closest report is Rivolto Air Base, 15.5 nm (28.7 km) S. Retrieved 2020/08/10 13:55 UTC (12 hours ago):

LIPI 101355Z 21003KT 9999 FEW050 33/20 Q1013 RMK FEW VIS MIN 9999 WIND THR06 22004KT WIND THR24 19004KT BLU

Closest aviation forecast (TAF) to Aviosuperficie AVRO

Forecast is more than 12 hours old.

Closest forecast is Rivolto Air Base, 15.5 nm (28.7 km) S. Retrieved 2020/01/23 12:24 UTC (7 months ago):

TAF TAF LIPI 231100Z 2312/2324 06010KT CAVOK